sensor_id;sensor_type;location;lat;lon;timestamp;P1;durP1;ratioP1;P2;durP2;ratioP2
21827;SDS011;11076;47.942;11.804;2024-01-30T00:03:39;2.40;;;1.70;;
21827;SDS011;11076;47.942;11.804;2024-01-30T00:08:41;2.70;;;1.80;;
21827;SDS011;11076;47.942;11.804;2024-01-30T00:13:44;1.53;;;1.40;;
21827;SDS011;11076;47.942;11.804;2024-01-30T00:18:46;2.80;;;1.70;;
21827;SDS011;11076;47.942;11.804;2024-01-30T00:23:49;2.00;;;1.47;;
21827;SDS011;11076;47.942;11.804;2024-01-30T00:28:51;4.20;;;2.00;;
21827;SDS011;11076;47.942;11.804;2024-01-30T00:33:54;2.17;;;1.63;;
21827;SDS011;11076;47.942;11.804;2024-01-30T00:38:56;1.50;;;1.40;;
21827;SDS011;11076;47.942;11.804;2024-01-30T00:43:58;1.83;;;1.37;;
21827;SDS011;11076;47.942;11.804;2024-01-30T00:49:01;1.60;;;1.23;;
21827;SDS011;11076;47.942;11.804;2024-01-30T00:54:03;1.20;;;1.10;;
21827;SDS011;11076;47.942;11.804;2024-01-30T00:59:06;2.13;;;1.20;;
21827;SDS011;11076;47.942;11.804;2024-01-30T01:04:08;1.30;;;1.20;;
21827;SDS011;11076;47.942;11.804;2024-01-30T01:09:11;2.03;;;1.30;;
21827;SDS011;11076;47.942;11.804;2024-01-30T01:14:14;2.80;;;1.70;;
21827;SDS011;11076;47.942;11.804;2024-01-30T01:19:16;3.30;;;1.63;;
21827;SDS011;11076;47.942;11.804;2024-01-30T01:24:19;4.00;;;1.60;;
21827;SDS011;11076;47.942;11.804;2024-01-30T01:29:21;1.83;;;1.63;;
21827;SDS011;11076;47.942;11.804;2024-01-30T01:34:30;2.83;;;1.83;;
21827;SDS011;11076;47.942;11.804;2024-01-30T01:39:33;2.93;;;1.73;;
21827;SDS011;11076;47.942;11.804;2024-01-30T01:44:35;1.67;;;1.50;;
21827;SDS011;11076;47.942;11.804;2024-01-30T01:49:38;3.73;;;1.77;;
21827;SDS011;11076;47.942;11.804;2024-01-30T01:54:41;1.57;;;1.40;;
21827;SDS011;11076;47.942;11.804;2024-01-30T01:59:43;1.77;;;1.67;;
21827;SDS011;11076;47.942;11.804;2024-01-30T02:04:46;4.53;;;1.80;;
21827;SDS011;11076;47.942;11.804;2024-01-30T02:09:48;3.67;;;2.00;;
21827;SDS011;11076;47.942;11.804;2024-01-30T02:14:50;1.50;;;1.40;;
21827;SDS011;11076;47.942;11.804;2024-01-30T02:19:53;2.87;;;1.93;;
21827;SDS011;11076;47.942;11.804;2024-01-30T02:24:55;3.50;;;2.27;;
21827;SDS011;11076;47.942;11.804;2024-01-30T02:29:58;2.50;;;1.40;;
21827;SDS011;11076;47.942;11.804;2024-01-30T02:35:01;1.67;;;1.13;;
21827;SDS011;11076;47.942;11.804;2024-01-30T02:40:03;2.40;;;1.40;;
21827;SDS011;11076;47.942;11.804;2024-01-30T02:45:06;1.13;;;1.00;;
21827;SDS011;11076;47.942;11.804;2024-01-30T02:50:10;1.73;;;1.07;;
21827;SDS011;11076;47.942;11.804;2024-01-30T02:55:12;2.77;;;1.13;;
21827;SDS011;11076;47.942;11.804;2024-01-30T03:00:15;1.17;;;1.07;;
21827;SDS011;11076;47.942;11.804;2024-01-30T03:05:18;3.67;;;1.30;;
21827;SDS011;11076;47.942;11.804;2024-01-30T03:10:20;1.40;;;1.20;;
21827;SDS011;11076;47.942;11.804;2024-01-30T03:15:23;1.43;;;1.33;;
21827;SDS011;11076;47.942;11.804;2024-01-30T03:20:25;2.30;;;1.37;;
21827;SDS011;11076;47.942;11.804;2024-01-30T03:25:28;1.43;;;1.33;;
21827;SDS011;11076;47.942;11.804;2024-01-30T03:30:30;1.17;;;1.17;;
21827;SDS011;11076;47.942;11.804;2024-01-30T03:35:32;1.20;;;1.10;;
21827;SDS011;11076;47.942;11.804;2024-01-30T03:40:35;1.67;;;1.20;;
21827;SDS011;11076;47.942;11.804;2024-01-30T03:45:37;1.17;;;1.13;;
21827;SDS011;11076;47.942;11.804;2024-01-30T03:50:40;1.50;;;1.23;;
21827;SDS011;11076;47.942;11.804;2024-01-30T03:55:43;1.20;;;1.20;;
21827;SDS011;11076;47.942;11.804;2024-01-30T04:00:45;1.70;;;1.13;;
21827;SDS011;11076;47.942;11.804;2024-01-30T04:05:48;1.13;;;1.13;;
21827;SDS011;11076;47.942;11.804;2024-01-30T04:10:50;1.20;;;1.10;;
21827;SDS011;11076;47.942;11.804;2024-01-30T04:15:52;2.63;;;1.20;;
21827;SDS011;11076;47.942;11.804;2024-01-30T04:20:56;1.07;;;1.00;;
21827;SDS011;11076;47.942;11.804;2024-01-30T04:25:59;1.40;;;1.30;;
21827;SDS011;11076;47.942;11.804;2024-01-30T04:31:01;1.10;;;1.10;;
21827;SDS011;11076;47.942;11.804;2024-01-30T04:36:04;0.97;;;0.97;;
21827;SDS011;11076;47.942;11.804;2024-01-30T04:41:12;2.93;;;1.03;;
21827;SDS011;11076;47.942;11.804;2024-01-30T04:46:14;1.67;;;1.00;;
21827;SDS011;11076;47.942;11.804;2024-01-30T04:51:16;1.65;;;1.38;;
21827;SDS011;11076;47.942;11.804;2024-01-30T04:56:19;1.77;;;1.30;;
21827;SDS011;11076;47.942;11.804;2024-01-30T05:01:21;1.77;;;1.10;;
21827;SDS011;11076;47.942;11.804;2024-01-30T05:06:27;1.30;;;1.20;;
21827;SDS011;11076;47.942;11.804;2024-01-30T05:11:30;1.27;;;1.17;;
21827;SDS011;11076;47.942;11.804;2024-01-30T05:16:32;2.53;;;1.23;;
21827;SDS011;11076;47.942;11.804;2024-01-30T05:21:35;2.03;;;1.47;;
21827;SDS011;11076;47.942;11.804;2024-01-30T05:26:37;1.80;;;0.97;;
21827;SDS011;11076;47.942;11.804;2024-01-30T05:31:40;1.63;;;1.33;;
21827;SDS011;11076;47.942;11.804;2024-01-30T05:36:42;4.67;;;2.43;;
21827;SDS011;11076;47.942;11.804;2024-01-30T05:41:45;2.83;;;2.10;;
21827;SDS011;11076;47.942;11.804;2024-01-30T05:46:47;6.93;;;2.93;;
21827;SDS011;11076;47.942;11.804;2024-01-30T05:51:49;5.30;;;3.50;;
21827;SDS011;11076;47.942;11.804;2024-01-30T05:56:52;16.70;;;6.43;;
21827;SDS011;11076;47.942;11.804;2024-01-30T06:01:54;12.00;;;5.30;;
21827;SDS011;11076;47.942;11.804;2024-01-30T06:06:57;9.10;;;4.00;;
21827;SDS011;11076;47.942;11.804;2024-01-30T06:11:59;4.77;;;2.70;;
21827;SDS011;11076;47.942;11.804;2024-01-30T06:17:02;7.20;;;3.53;;
21827;SDS011;11076;47.942;11.804;2024-01-30T06:22:05;7.10;;;3.70;;
21827;SDS011;11076;47.942;11.804;2024-01-30T06:27:07;4.13;;;2.10;;
21827;SDS011;11076;47.942;11.804;2024-01-30T06:32:10;1.50;;;1.40;;
21827;SDS011;11076;47.942;11.804;2024-01-30T06:37:12;2.43;;;2.23;;
21827;SDS011;11076;47.942;11.804;2024-01-30T06:42:15;6.37;;;3.20;;
21827;SDS011;11076;47.942;11.804;2024-01-30T06:47:18;3.83;;;2.97;;
21827;SDS011;11076;47.942;11.804;2024-01-30T06:52:20;2.80;;;2.50;;
21827;SDS011;11076;47.942;11.804;2024-01-30T06:57:22;2.87;;;2.47;;
21827;SDS011;11076;47.942;11.804;2024-01-30T07:02:25;3.30;;;2.17;;
21827;SDS011;11076;47.942;11.804;2024-01-30T07:07:27;2.40;;;2.20;;
21827;SDS011;11076;47.942;11.804;2024-01-30T07:12:30;3.03;;;2.17;;
21827;SDS011;11076;47.942;11.804;2024-01-30T07:17:33;2.77;;;2.10;;
21827;SDS011;11076;47.942;11.804;2024-01-30T07:22:37;4.40;;;2.23;;
21827;SDS011;11076;47.942;11.804;2024-01-30T07:27:40;2.40;;;1.90;;
21827;SDS011;11076;47.942;11.804;2024-01-30T07:32:43;2.13;;;1.90;;
21827;SDS011;11076;47.942;11.804;2024-01-30T07:37:46;2.27;;;1.90;;
21827;SDS011;11076;47.942;11.804;2024-01-30T07:42:48;2.27;;;1.93;;
21827;SDS011;11076;47.942;11.804;2024-01-30T07:47:52;5.40;;;2.43;;
21827;SDS011;11076;47.942;11.804;2024-01-30T07:52:55;3.07;;;2.33;;
21827;SDS011;11076;47.942;11.804;2024-01-30T07:57:58;2.60;;;1.90;;
21827;SDS011;11076;47.942;11.804;2024-01-30T08:03:02;4.73;;;2.43;;
21827;SDS011;11076;47.942;11.804;2024-01-30T08:08:04;3.93;;;2.53;;
21827;SDS011;11076;47.942;11.804;2024-01-30T08:13:07;8.50;;;3.43;;
21827;SDS011;11076;47.942;11.804;2024-01-30T08:18:10;6.50;;;3.80;;
21827;SDS011;11076;47.942;11.804;2024-01-30T08:23:13;8.37;;;4.60;;
21827;SDS011;11076;47.942;11.804;2024-01-30T08:28:15;4.30;;;2.93;;
21827;SDS011;11076;47.942;11.804;2024-01-30T08:33:18;4.20;;;2.70;;
21827;SDS011;11076;47.942;11.804;2024-01-30T08:38:21;4.10;;;2.93;;
21827;SDS011;11076;47.942;11.804;2024-01-30T08:43:23;3.70;;;2.90;;
21827;SDS011;11076;47.942;11.804;2024-01-30T08:48:26;5.13;;;3.30;;
21827;SDS011;11076;47.942;11.804;2024-01-30T08:53:29;4.80;;;3.30;;
21827;SDS011;11076;47.942;11.804;2024-01-30T08:58:31;4.13;;;2.57;;
21827;SDS011;11076;47.942;11.804;2024-01-30T09:03:33;2.27;;;1.90;;
21827;SDS011;11076;47.942;11.804;2024-01-30T09:08:36;7.77;;;1.83;;
21827;SDS011;11076;47.942;11.804;2024-01-30T09:13:38;3.97;;;1.93;;
21827;SDS011;11076;47.942;11.804;2024-01-30T09:18:41;2.87;;;2.20;;
21827;SDS011;11076;47.942;11.804;2024-01-30T09:23:44;3.17;;;2.00;;
21827;SDS011;11076;47.942;11.804;2024-01-30T09:28:46;8.23;;;2.83;;
21827;SDS011;11076;47.942;11.804;2024-01-30T09:33:49;11.90;;;2.57;;
21827;SDS011;11076;47.942;11.804;2024-01-30T09:38:53;6.97;;;2.50;;
21827;SDS011;11076;47.942;11.804;2024-01-30T09:43:55;5.20;;;2.50;;
21827;SDS011;11076;47.942;11.804;2024-01-30T09:49:01;3.45;;;1.70;;
21827;SDS011;11076;47.942;11.804;2024-01-30T09:54:04;8.80;;;2.80;;
21827;SDS011;11076;47.942;11.804;2024-01-30T09:59:10;3.10;;;1.25;;
21827;SDS011;11076;47.942;11.804;2024-01-30T10:04:13;1.17;;;1.10;;
21827;SDS011;11076;47.942;11.804;2024-01-30T10:09:15;1.52;;;1.30;;
21827;SDS011;11076;47.942;11.804;2024-01-30T10:14:17;1.48;;;1.20;;
21827;SDS011;11076;47.942;11.804;2024-01-30T10:19:20;4.63;;;1.20;;
21827;SDS011;11076;47.942;11.804;2024-01-30T10:24:26;1.35;;;1.25;;
21827;SDS011;11076;47.942;11.804;2024-01-30T10:29:28;1.20;;;1.08;;
21827;SDS011;11076;47.942;11.804;2024-01-30T10:34:31;1.27;;;1.17;;
21827;SDS011;11076;47.942;11.804;2024-01-30T10:39:37;1.48;;;1.33;;
21827;SDS011;11076;47.942;11.804;2024-01-30T10:50:05;4.60;;;0.80;;
21827;SDS011;11076;47.942;11.804;2024-01-30T10:55:10;1.17;;;0.88;;
21827;SDS011;11076;47.942;11.804;2024-01-30T11:00:13;2.08;;;1.02;;
21827;SDS011;11076;47.942;11.804;2024-01-30T11:05:24;1.02;;;1.00;;
21827;SDS011;11076;47.942;11.804;2024-01-30T11:10:31;1.00;;;0.90;;
21827;SDS011;11076;47.942;11.804;2024-01-30T11:15:37;1.10;;;0.80;;
21827;SDS011;11076;47.942;11.804;2024-01-30T11:20:39;1.30;;;1.20;;
21827;SDS011;11076;47.942;11.804;2024-01-30T11:25:48;1.10;;;1.00;;
21827;SDS011;11076;47.942;11.804;2024-01-30T11:30:51;12.45;;;2.22;;
21827;SDS011;11076;47.942;11.804;2024-01-30T11:35:53;1.10;;;1.08;;
21827;SDS011;11076;47.942;11.804;2024-01-30T11:40:56;1.55;;;1.15;;
21827;SDS011;11076;47.942;11.804;2024-01-30T11:46:01;5.47;;;1.50;;
21827;SDS011;11076;47.942;11.804;2024-01-30T11:51:04;8.70;;;1.70;;
21827;SDS011;11076;47.942;11.804;2024-01-30T11:56:07;2.00;;;1.10;;
21827;SDS011;11076;47.942;11.804;2024-01-30T12:01:10;2.37;;;1.10;;
21827;SDS011;11076;47.942;11.804;2024-01-30T12:06:13;3.88;;;1.38;;
21827;SDS011;11076;47.942;11.804;2024-01-30T12:11:17;2.47;;;1.13;;
21827;SDS011;11076;47.942;11.804;2024-01-30T12:16:20;4.95;;;2.17;;
21827;SDS011;11076;47.942;11.804;2024-01-30T12:21:23;1.42;;;1.10;;
21827;SDS011;11076;47.942;11.804;2024-01-30T12:26:26;1.95;;;1.45;;
21827;SDS011;11076;47.942;11.804;2024-01-30T12:31:28;1.88;;;1.10;;
21827;SDS011;11076;47.942;11.804;2024-01-30T12:36:31;2.20;;;1.92;;
21827;SDS011;11076;47.942;11.804;2024-01-30T12:41:33;2.50;;;1.30;;
21827;SDS011;11076;47.942;11.804;2024-01-30T12:46:36;2.92;;;1.50;;
21827;SDS011;11076;47.942;11.804;2024-01-30T12:51:38;2.80;;;1.15;;
21827;SDS011;11076;47.942;11.804;2024-01-30T12:56:42;1.42;;;1.23;;
21827;SDS011;11076;47.942;11.804;2024-01-30T13:01:44;1.95;;;1.40;;
21827;SDS011;11076;47.942;11.804;2024-01-30T13:06:47;2.28;;;1.30;;
21827;SDS011;11076;47.942;11.804;2024-01-30T13:11:50;1.70;;;1.60;;
21827;SDS011;11076;47.942;11.804;2024-01-30T13:16:53;1.20;;;1.10;;
21827;SDS011;11076;47.942;11.804;2024-01-30T13:21:56;1.15;;;1.00;;
21827;SDS011;11076;47.942;11.804;2024-01-30T13:26:58;1.40;;;1.27;;
21827;SDS011;11076;47.942;11.804;2024-01-30T13:32:00;7.72;;;1.17;;
21827;SDS011;11076;47.942;11.804;2024-01-30T13:37:03;2.67;;;1.17;;
21827;SDS011;11076;47.942;11.804;2024-01-30T13:42:06;3.03;;;1.35;;
21827;SDS011;11076;47.942;11.804;2024-01-30T13:47:08;3.28;;;1.40;;
21827;SDS011;11076;47.942;11.804;2024-01-30T13:52:10;1.40;;;1.08;;
21827;SDS011;11076;47.942;11.804;2024-01-30T13:57:13;3.58;;;1.25;;
21827;SDS011;11076;47.942;11.804;2024-01-30T14:02:15;5.68;;;1.20;;
21827;SDS011;11076;47.942;11.804;2024-01-30T14:07:18;8.90;;;1.80;;
21827;SDS011;11076;47.942;11.804;2024-01-30T14:12:20;7.50;;;1.48;;
21827;SDS011;11076;47.942;11.804;2024-01-30T14:17:23;19.42;;;2.55;;
21827;SDS011;11076;47.942;11.804;2024-01-30T14:22:25;2.50;;;1.40;;
21827;SDS011;11076;47.942;11.804;2024-01-30T14:27:27;2.05;;;1.20;;
21827;SDS011;11076;47.942;11.804;2024-01-30T14:32:30;22.02;;;2.40;;
21827;SDS011;11076;47.942;11.804;2024-01-30T14:37:32;4.78;;;1.30;;
21827;SDS011;11076;47.942;11.804;2024-01-30T14:42:35;1.88;;;1.30;;
21827;SDS011;11076;47.942;11.804;2024-01-30T14:47:39;2.25;;;1.58;;
21827;SDS011;11076;47.942;11.804;2024-01-30T14:52:43;2.95;;;1.35;;
21827;SDS011;11076;47.942;11.804;2024-01-30T14:57:46;3.35;;;1.20;;
21827;SDS011;11076;47.942;11.804;2024-01-30T15:02:50;3.42;;;1.38;;
21827;SDS011;11076;47.942;11.804;2024-01-30T15:07:53;3.53;;;1.60;;
21827;SDS011;11076;47.942;11.804;2024-01-30T15:12:55;10.25;;;1.45;;
21827;SDS011;11076;47.942;11.804;2024-01-30T15:17:58;4.18;;;1.42;;
21827;SDS011;11076;47.942;11.804;2024-01-30T15:23:00;7.78;;;1.30;;
21827;SDS011;11076;47.942;11.804;2024-01-30T15:28:03;2.25;;;1.20;;
21827;SDS011;11076;47.942;11.804;2024-01-30T15:33:05;8.10;;;1.30;;
21827;SDS011;11076;47.942;11.804;2024-01-30T15:38:08;6.07;;;1.40;;
21827;SDS011;11076;47.942;11.804;2024-01-30T15:43:10;4.72;;;2.33;;
21827;SDS011;11076;47.942;11.804;2024-01-30T15:48:13;4.57;;;1.67;;
21827;SDS011;11076;47.942;11.804;2024-01-30T15:53:15;9.57;;;1.85;;
21827;SDS011;11076;47.942;11.804;2024-01-30T15:58:18;3.55;;;1.65;;
21827;SDS011;11076;47.942;11.804;2024-01-30T16:03:21;3.75;;;1.35;;
21827;SDS011;11076;47.942;11.804;2024-01-30T16:08:23;5.93;;;3.17;;
21827;SDS011;11076;47.942;11.804;2024-01-30T16:13:26;5.87;;;2.13;;
21827;SDS011;11076;47.942;11.804;2024-01-30T16:18:28;10.65;;;4.38;;
21827;SDS011;11076;47.942;11.804;2024-01-30T16:23:33;10.77;;;4.80;;
21827;SDS011;11076;47.942;11.804;2024-01-30T16:28:35;13.20;;;6.47;;
21827;SDS011;11076;47.942;11.804;2024-01-30T16:33:38;16.67;;;7.30;;
21827;SDS011;11076;47.942;11.804;2024-01-30T16:38:42;9.17;;;4.40;;
21827;SDS011;11076;47.942;11.804;2024-01-30T16:43:44;10.90;;;5.57;;
21827;SDS011;11076;47.942;11.804;2024-01-30T16:48:47;10.77;;;4.23;;
21827;SDS011;11076;47.942;11.804;2024-01-30T16:53:52;6.27;;;3.33;;
21827;SDS011;11076;47.942;11.804;2024-01-30T16:58:54;7.97;;;4.07;;
21827;SDS011;11076;47.942;11.804;2024-01-30T17:03:57;6.57;;;4.50;;
21827;SDS011;11076;47.942;11.804;2024-01-30T17:08:59;10.67;;;3.07;;
21827;SDS011;11076;47.942;11.804;2024-01-30T17:14:02;11.70;;;3.63;;
21827;SDS011;11076;47.942;11.804;2024-01-30T17:19:04;6.30;;;2.83;;
21827;SDS011;11076;47.942;11.804;2024-01-30T17:24:07;5.70;;;3.27;;
21827;SDS011;11076;47.942;11.804;2024-01-30T17:29:10;10.13;;;5.57;;
21827;SDS011;11076;47.942;11.804;2024-01-30T17:34:13;15.20;;;9.20;;
21827;SDS011;11076;47.942;11.804;2024-01-30T17:39:16;10.63;;;5.20;;
21827;SDS011;11076;47.942;11.804;2024-01-30T17:44:18;7.80;;;3.23;;
21827;SDS011;11076;47.942;11.804;2024-01-30T17:49:22;4.67;;;3.00;;
21827;SDS011;11076;47.942;11.804;2024-01-30T17:54:27;2.53;;;1.80;;
21827;SDS011;11076;47.942;11.804;2024-01-30T17:59:29;6.70;;;2.30;;
21827;SDS011;11076;47.942;11.804;2024-01-30T18:04:32;5.87;;;2.13;;
21827;SDS011;11076;47.942;11.804;2024-01-30T18:09:34;2.40;;;1.80;;
21827;SDS011;11076;47.942;11.804;2024-01-30T18:14:37;4.43;;;2.67;;
21827;SDS011;11076;47.942;11.804;2024-01-30T18:19:39;8.53;;;3.50;;
21827;SDS011;11076;47.942;11.804;2024-01-30T18:24:41;7.37;;;4.40;;
21827;SDS011;11076;47.942;11.804;2024-01-30T18:29:44;4.07;;;3.13;;
21827;SDS011;11076;47.942;11.804;2024-01-30T18:34:46;10.47;;;4.37;;
21827;SDS011;11076;47.942;11.804;2024-01-30T18:39:49;8.03;;;4.30;;
21827;SDS011;11076;47.942;11.804;2024-01-30T18:44:51;5.17;;;3.07;;
21827;SDS011;11076;47.942;11.804;2024-01-30T18:49:54;10.23;;;4.80;;
21827;SDS011;11076;47.942;11.804;2024-01-30T18:54:57;8.83;;;4.60;;
21827;SDS011;11076;47.942;11.804;2024-01-30T18:59:59;10.17;;;5.03;;
21827;SDS011;11076;47.942;11.804;2024-01-30T19:05:01;8.50;;;4.23;;
21827;SDS011;11076;47.942;11.804;2024-01-30T19:10:06;8.00;;;4.90;;
21827;SDS011;11076;47.942;11.804;2024-01-30T19:15:09;7.57;;;5.10;;
21827;SDS011;11076;47.942;11.804;2024-01-30T19:20:11;6.70;;;4.20;;
21827;SDS011;11076;47.942;11.804;2024-01-30T19:25:14;6.97;;;4.37;;
21827;SDS011;11076;47.942;11.804;2024-01-30T19:30:16;11.77;;;4.90;;
21827;SDS011;11076;47.942;11.804;2024-01-30T19:35:19;7.70;;;2.70;;
21827;SDS011;11076;47.942;11.804;2024-01-30T19:40:22;6.00;;;3.00;;
21827;SDS011;11076;47.942;11.804;2024-01-30T19:45:24;6.27;;;2.73;;
21827;SDS011;11076;47.942;11.804;2024-01-30T19:50:27;8.10;;;3.03;;
21827;SDS011;11076;47.942;11.804;2024-01-30T19:55:30;3.77;;;2.40;;
21827;SDS011;11076;47.942;11.804;2024-01-30T20:00:33;3.37;;;2.07;;
21827;SDS011;11076;47.942;11.804;2024-01-30T20:05:36;3.13;;;2.00;;
21827;SDS011;11076;47.942;11.804;2024-01-30T20:10:38;2.13;;;1.73;;
21827;SDS011;11076;47.942;11.804;2024-01-30T20:15:41;4.17;;;2.30;;
21827;SDS011;11076;47.942;11.804;2024-01-30T20:20:43;3.53;;;2.30;;
21827;SDS011;11076;47.942;11.804;2024-01-30T20:25:46;7.80;;;3.50;;
21827;SDS011;11076;47.942;11.804;2024-01-30T20:30:48;5.37;;;3.23;;
21827;SDS011;11076;47.942;11.804;2024-01-30T20:35:52;7.30;;;3.10;;
21827;SDS011;11076;47.942;11.804;2024-01-30T20:40:55;6.73;;;3.57;;
21827;SDS011;11076;47.942;11.804;2024-01-30T20:45:57;7.20;;;2.90;;
21827;SDS011;11076;47.942;11.804;2024-01-30T20:51:00;5.17;;;2.90;;
21827;SDS011;11076;47.942;11.804;2024-01-30T20:56:02;6.37;;;2.73;;
21827;SDS011;11076;47.942;11.804;2024-01-30T21:01:05;3.30;;;2.40;;
21827;SDS011;11076;47.942;11.804;2024-01-30T21:06:07;2.93;;;2.30;;
21827;SDS011;11076;47.942;11.804;2024-01-30T21:11:15;4.83;;;2.63;;
21827;SDS011;11076;47.942;11.804;2024-01-30T21:16:20;6.20;;;3.30;;
21827;SDS011;11076;47.942;11.804;2024-01-30T21:21:22;5.77;;;3.27;;
21827;SDS011;11076;47.942;11.804;2024-01-30T21:26:24;7.10;;;4.07;;
21827;SDS011;11076;47.942;11.804;2024-01-30T21:31:27;10.27;;;4.33;;
21827;SDS011;11076;47.942;11.804;2024-01-30T21:36:29;4.47;;;3.03;;
21827;SDS011;11076;47.942;11.804;2024-01-30T21:41:32;5.57;;;3.83;;
21827;SDS011;11076;47.942;11.804;2024-01-30T21:46:34;6.83;;;3.17;;
21827;SDS011;11076;47.942;11.804;2024-01-30T21:51:36;4.60;;;2.73;;
21827;SDS011;11076;47.942;11.804;2024-01-30T21:56:39;2.93;;;2.30;;
21827;SDS011;11076;47.942;11.804;2024-01-30T22:01:41;2.23;;;1.73;;
21827;SDS011;11076;47.942;11.804;2024-01-30T22:06:44;4.20;;;1.90;;
21827;SDS011;11076;47.942;11.804;2024-01-30T22:11:46;1.47;;;1.37;;
21827;SDS011;11076;47.942;11.804;2024-01-30T22:16:49;2.60;;;1.77;;
21827;SDS011;11076;47.942;11.804;2024-01-30T22:21:51;2.43;;;1.47;;
21827;SDS011;11076;47.942;11.804;2024-01-30T22:26:53;2.80;;;2.13;;
21827;SDS011;11076;47.942;11.804;2024-01-30T22:31:56;2.70;;;2.10;;
21827;SDS011;11076;47.942;11.804;2024-01-30T22:36:58;1.93;;;1.67;;
21827;SDS011;11076;47.942;11.804;2024-01-30T22:42:01;3.73;;;2.40;;
21827;SDS011;11076;47.942;11.804;2024-01-30T22:47:03;4.60;;;2.07;;
21827;SDS011;11076;47.942;11.804;2024-01-30T22:52:06;3.90;;;2.30;;
21827;SDS011;11076;47.942;11.804;2024-01-30T22:57:09;3.03;;;1.93;;
21827;SDS011;11076;47.942;11.804;2024-01-30T23:02:11;3.07;;;1.60;;
21827;SDS011;11076;47.942;11.804;2024-01-30T23:07:13;4.23;;;2.30;;
21827;SDS011;11076;47.942;11.804;2024-01-30T23:12:18;4.83;;;2.27;;
21827;SDS011;11076;47.942;11.804;2024-01-30T23:17:21;5.07;;;2.03;;
21827;SDS011;11076;47.942;11.804;2024-01-30T23:22:23;2.93;;;2.10;;
21827;SDS011;11076;47.942;11.804;2024-01-30T23:27:26;2.27;;;1.70;;
21827;SDS011;11076;47.942;11.804;2024-01-30T23:32:28;2.90;;;1.90;;
21827;SDS011;11076;47.942;11.804;2024-01-30T23:37:31;3.53;;;1.70;;
21827;SDS011;11076;47.942;11.804;2024-01-30T23:42:33;4.13;;;1.83;;
21827;SDS011;11076;47.942;11.804;2024-01-30T23:47:36;2.17;;;1.63;;
21827;SDS011;11076;47.942;11.804;2024-01-30T23:52:42;2.27;;;1.70;;
21827;SDS011;11076;47.942;11.804;2024-01-30T23:57:48;2.63;;;1.90;;
